Time;durP1;ratioP1;P1;durP2;ratioP2;P2;SDS_P1;SDS_P2;PMS_P1;PMS_P2;Temp;Humidity;BMP_temperature;BMP_pressure;BME280_temperature;BME280_humidity;BME280_pressure;Samples;Min_cycle;Max_cycle;Signal;HPM_P1;HPM_P2
2022/08/03 00:01:44;;;;;;;6.57;5.90;;;;;;;;;;5052486;28;20091;-83
2022/08/03 00:04:11;;;;;;;10.07;6.22;;;;;;;;;;5052564;28;20041;-85
2022/08/03 00:06:37;;;;;;;6.55;5.80;;;;;;;;;;5052403;28;20029;-85
2022/08/03 00:09:06;;;;;;;8.73;5.25;;;;;;;;;;5052568;28;20033;-86
2022/08/03 00:11:32;;;;;;;9.55;5.65;;;;;;;;;;5052393;28;20061;-86
2022/08/03 00:13:58;;;;;;;7.40;5.75;;;;;;;;;;5051226;28;20057;-86
2022/08/03 00:16:25;;;;;;;9.85;5.63;;;;;;;;;;5052520;28;20036;-85
2022/08/03 00:18:51;;;;;;;7.65;5.82;;;;;;;;;;5052217;28;20179;-84
2022/08/03 00:21:17;;;;;;;6.28;5.07;;;;;;;;;;5051229;28;20408;-83
2022/08/03 00:23:43;;;;;;;7.13;5.20;;;;;;;;;;5052156;28;20033;-84
2022/08/03 00:26:09;;;;;;;8.77;4.97;;;;;;;;;;5052299;28;20033;-85
2022/08/03 00:28:36;;;;;;;7.10;5.38;;;;;;;;;;5051134;28;20039;-86
2022/08/03 00:31:04;;;;;;;6.35;5.28;;;;;;;;;;5033169;28;20099;-84
2022/08/03 00:33:30;;;;;;;7.93;4.85;;;;;;;;;;5032177;28;20065;-83
2022/08/03 00:36:19;;;;;;;8.10;5.85;;;;;;;;;;5031729;28;20033;-83
2022/08/03 00:38:45;;;;;;;9.13;6.05;;;;;;;;;;5032213;28;20029;-86
2022/08/03 00:41:14;;;;;;;7.93;6.22;;;;;;;;;;5014542;28;20064;-87
2022/08/03 00:43:43;;;;;;;8.95;6.10;;;;;;;;;;5014294;28;20065;-85
2022/08/03 00:46:09;;;;;;;10.95;6.00;;;;;;;;;;5014494;28;20448;-87
2022/08/03 00:48:36;;;;;;;9.48;6.00;;;;;;;;;;5014476;28;20056;-88
2022/08/03 00:51:02;;;;;;;8.38;6.13;;;;;;;;;;5014589;28;20069;-85
2022/08/03 00:53:28;;;;;;;12.10;6.05;;;;;;;;;;5031891;28;20014;-84
2022/08/03 00:55:57;;;;;;;10.40;5.93;;;;;;;;;;5031753;28;20064;-81
2022/08/03 00:58:24;;;;;;;9.02;5.80;;;;;;;;;;5032055;28;20032;-84
2022/08/03 01:01:06;;;;;;;;;;;;;;;;;;;;;
2022/08/03 01:03:32;;;;;;;9.15;5.97;;;;;;;;;;5035921;28;20025;-80
2022/08/03 01:06:11;;;;;;;9.35;5.95;;;;;;;;;;5018140;28;20059;-82
2022/08/03 01:08:45;;;;;;;8.43;6.38;;;;;;;;;;5018175;28;20038;-83
2022/08/03 01:11:17;;;;;;;8.93;6.43;;;;;;;;;;5035725;28;20030;-85
2022/08/03 01:13:47;;;;;;;9.13;7.13;;;;;;;;;;5018053;28;20036;-86
2022/08/03 01:16:27;;;;;;;8.50;6.25;;;;;;;;;;5017955;28;20034;-85
2022/08/03 01:18:59;;;;;;;13.30;6.07;;;;;;;;;;5017740;28;20041;-83
2022/08/03 01:21:34;;;;;;;6.40;5.80;;;;;;;;;;5035742;28;20092;-83
2022/08/03 01:24:36;;;;;;;8.25;5.63;;;;;;;;;;5035509;28;20547;-83
2022/08/03 01:27:02;;;;;;;8.30;5.20;;;;;;;;;;4975315;28;20042;-83
2022/08/03 01:29:28;;;;;;;8.82;5.43;;;;;;;;;;5035075;28;20559;-87
2022/08/03 01:32:00;;;;;;;6.38;4.93;;;;;;;;;;5017737;28;20033;-83
2022/08/03 01:34:31;;;;;;;6.65;5.03;;;;;;;;;;5035337;28;20040;-83
2022/08/03 01:37:10;;;;;;;;;;;;;;;;;;;;;
2022/08/03 01:39:37;;;;;;;8.40;4.97;;;;;;;;;;5035328;28;20036;-83
2022/08/03 01:42:21;;;;;;;7.75;5.30;;;;;;;;;;5035159;28;20080;-84
2022/08/03 01:44:52;;;;;;;7.60;4.30;;;;;;;;;;5033924;28;20164;-83
2022/08/03 01:47:20;;;;;;;5.43;4.32;;;;;;;;;;5033740;28;20040;-86
2022/08/03 01:50:09;;;;;;;5.40;4.38;;;;;;;;;;5034970;28;20084;-86
2022/08/03 01:52:37;;;;;;;6.40;4.68;;;;;;;;;;5026235;28;20485;-85
2022/08/03 01:55:07;;;;;;;6.55;4.78;;;;;;;;;;5033899;28;20103;-83
2022/08/03 01:57:36;;;;;;;6.53;4.78;;;;;;;;;;5033518;28;20439;-84
2022/08/03 02:00:13;;;;;;;7.18;4.50;;;;;;;;;;5034983;28;20037;-83
2022/08/03 02:02:59;;;;;;;6.90;4.45;;;;;;;;;;5033632;28;20039;-84
2022/08/03 02:05:39;;;;;;;7.53;5.15;;;;;;;;;;5033511;28;20030;-84
2022/08/03 02:08:37;;;;;;;6.82;4.68;;;;;;;;;;5034564;28;20041;-84
2022/08/03 02:11:12;;;;;;;6.35;4.43;;;;;;;;;;5033379;28;20040;-84
2022/08/03 02:14:10;;;;;;;6.45;5.13;;;;;;;;;;5033413;28;20030;-81
2022/08/03 02:17:06;;;;;;;;;;;;;;;;;;;;;
2022/08/03 02:19:56;;;;;;;6.28;4.80;;;;;;;;;;5028653;28;20040;-84
2022/08/03 02:22:40;;;;;;;4.70;4.30;;;;;;;;;;5034555;28;20108;-84
2022/08/03 02:25:25;;;;;;;5.60;4.05;;;;;;;;;;5034196;28;20030;-84
2022/08/03 02:28:01;;;;;;;5.55;3.95;;;;;;;;;;5033022;28;20483;-83
2022/08/03 02:31:07;;;;;;;4.68;3.63;;;;;;;;;;5061991;28;20052;-85
2022/08/03 02:33:52;;;;;;;5.18;3.53;;;;;;;;;;5056333;28;20036;-83
2022/08/03 02:39:41;;;;;;;5.85;4.13;;;;;;;;;;5002802;28;20025;-83
2022/08/03 02:42:26;;;;;;;4.28;3.88;;;;;;;;;;5055886;28;20475;-84
2022/08/03 02:45:12;;;;;;;5.05;4.10;;;;;;;;;;5056000;28;20444;-84
2022/08/03 02:48:47;;;;;;;7.15;5.00;;;;;;;;;;5055688;28;20457;-84
2022/08/03 02:50:48;;;;;;;7.20;4.30;;;;;;;;;;5018991;28;20025;-83
2022/08/03 02:53:16;;;;;;;7.47;4.80;;;;;;;;;;5073901;28;20036;-85
2022/08/03 02:55:47;;;;;;;6.00;4.07;;;;;;;;;;5056036;28;20029;-85
2022/08/03 02:58:13;;;;;;;7.22;4.07;;;;;;;;;;5073636;28;20029;-85
2022/08/03 03:00:39;;;;;;;5.60;4.80;;;;;;;;;;5073744;28;20484;-84
2022/08/03 03:03:06;;;;;;;4.90;3.85;;;;;;;;;;5073558;28;20036;-86
2022/08/03 03:05:41;;;;;;;5.00;4.05;;;;;;;;;;5073628;28;20127;-84
2022/08/03 03:14:23;;;;;;;6.82;3.70;;;;;;;;;;5019979;28;20020;-84
2022/08/03 03:16:55;;;;;;;5.50;4.03;;;;;;;;;;5037567;28;20057;-84
2022/08/03 03:19:21;;;;;;;6.13;4.10;;;;;;;;;;5055475;28;20105;-85
2022/08/03 03:21:48;;;;;;;4.45;3.90;;;;;;;;;;5072585;28;20103;-84
2022/08/03 03:24:14;;;;;;;4.53;4.07;;;;;;;;;;5055559;28;20124;-85
2022/08/03 03:26:41;;;;;;;5.85;3.70;;;;;;;;;;5055015;28;20497;-83
2022/08/03 03:29:26;;;;;;;5.68;4.10;;;;;;;;;;5054080;28;20029;-84
2022/08/03 03:32:03;;;;;;;4.65;3.63;;;;;;;;;;5073181;28;20118;-84
2022/08/03 03:34:29;;;;;;;7.68;4.35;;;;;;;;;;5054939;28;20093;-84
2022/08/03 03:36:59;;;;;;;4.00;3.60;;;;;;;;;;5055310;28;20032;-87
2022/08/03 03:40:18;;;;;;;5.88;3.50;;;;;;;;;;5072608;28;20032;-85
2022/08/03 03:42:24;;;;;;;4.45;3.85;;;;;;;;;;5064593;28;20074;-82
2022/08/03 03:44:51;;;;;;;5.30;3.63;;;;;;;;;;5055096;28;20040;-84
2022/08/03 03:47:21;;;;;;;5.40;3.53;;;;;;;;;;5054681;28;20131;-84
2022/08/03 03:49:54;;;;;;;5.40;3.83;;;;;;;;;;5054728;28;20024;-85
2022/08/03 03:52:20;;;;;;;4.68;3.38;;;;;;;;;;5036436;28;20087;-85
2022/08/03 03:54:52;;;;;;;5.32;3.97;;;;;;;;;;5034869;28;20036;-86
2022/08/03 03:57:22;;;;;;;4.75;3.78;;;;;;;;;;5034699;28;20064;-84
2022/08/03 04:02:57;;;;;;;4.85;3.72;;;;;;;;;;5033037;28;20488;-86
2022/08/03 04:17:19;;;;;;;3.65;3.35;;;;;;;;;;5044870;28;20388;-84
2022/08/03 04:19:53;;;;;;;3.20;2.90;;;;;;;;;;5012664;28;20049;-86
2022/08/03 04:22:22;;;;;;;8.07;7.20;;;;;;;;;;5030134;28;20033;-82
2022/08/03 04:24:50;;;;;;;3.83;3.53;;;;;;;;;;5030304;28;20385;-84
2022/08/03 04:27:20;;;;;;;3.88;2.72;;;;;;;;;;5030192;28;20037;-86
2022/08/03 04:29:48;;;;;;;3.88;2.67;;;;;;;;;;5030694;28;20049;-84
2022/08/03 04:32:15;;;;;;;6.85;6.30;;;;;;;;;;5030298;28;20053;-84
2022/08/03 04:34:41;;;;;;;4.95;4.40;;;;;;;;;;5032473;28;20551;-83
2022/08/03 04:37:26;;;;;;;7.82;7.03;;;;;;;;;;5034267;28;20057;-85
2022/08/03 04:39:53;;;;;;;4.25;3.33;;;;;;;;;;5017726;28;20037;-83
2022/08/03 04:42:20;;;;;;;3.25;2.95;;;;;;;;;;5034297;28;20033;-85
2022/08/03 04:44:46;;;;;;;3.17;2.72;;;;;;;;;;5034279;28;20038;-82
2022/08/03 04:47:13;;;;;;;4.43;3.00;;;;;;;;;;5034025;28;20048;-85
2022/08/03 04:49:39;;;;;;;4.60;3.38;;;;;;;;;;5035212;28;20128;-84
2022/08/03 04:52:08;;;;;;;5.05;3.20;;;;;;;;;;5056062;28;20083;-84
2022/08/03 04:54:44;;;;;;;6.25;4.03;;;;;;;;;;5056066;28;20033;-84
2022/08/03 04:57:10;;;;;;;3.25;2.95;;;;;;;;;;5055988;28;20029;-83
2022/08/03 04:59:37;;;;;;;4.38;3.13;;;;;;;;;;5056026;28;20055;-84
2022/08/03 05:02:03;;;;;;;3.30;3.00;;;;;;;;;;5038099;28;20056;-86
2022/08/03 05:04:29;;;;;;;4.30;3.53;;;;;;;;;;5055856;28;20043;-83
2022/08/03 05:06:55;;;;;;;4.72;3.70;;;;;;;;;;5055501;28;20073;-82
2022/08/03 05:09:22;;;;;;;3.42;3.10;;;;;;;;;;5055834;28;20033;-84
2022/08/03 05:11:48;;;;;;;3.92;2.92;;;;;;;;;;5055762;28;20038;-82
2022/08/03 05:14:14;;;;;;;4.55;2.85;;;;;;;;;;5055504;28;20112;-84
2022/08/03 05:16:40;;;;;;;3.70;2.67;;;;;;;;;;5055645;28;20117;-83
2022/08/03 05:19:06;;;;;;;5.97;3.50;;;;;;;;;;5055453;28;20033;-84
2022/08/03 05:21:32;;;;;;;3.22;2.92;;;;;;;;;;5055277;28;20391;-84
2022/08/03 05:23:58;;;;;;;4.05;3.08;;;;;;;;;;5037578;28;20115;-87
2022/08/03 05:26:24;;;;;;;4.68;3.25;;;;;;;;;;5064324;28;20036;-84
2022/08/03 05:28:51;;;;;;;3.70;2.95;;;;;;;;;;5076908;28;20032;-85
2022/08/03 05:31:18;;;;;;;6.55;3.78;;;;;;;;;;5095223;28;20069;-84
2022/08/03 05:33:44;;;;;;;2.55;2.25;;;;;;;;;;5079775;28;20029;-85
2022/08/03 05:36:12;;;;;;;5.25;2.83;;;;;;;;;;5067649;28;20093;-85
2022/08/03 05:38:49;;;;;;;5.38;3.28;;;;;;;;;;5053785;28;20032;-84
2022/08/03 05:41:18;;;;;;;4.13;2.90;;;;;;;;;;5050361;28;20059;-84
2022/08/03 05:43:44;;;;;;;4.90;3.53;;;;;;;;;;5067091;28;20085;-83
2022/08/03 05:46:10;;;;;;;3.35;3.05;;;;;;;;;;5070271;28;20045;-80
2022/08/03 05:48:36;;;;;;;5.25;3.28;;;;;;;;;;5058914;28;20028;-81
2022/08/03 05:51:05;;;;;;;4.82;2.55;;;;;;;;;;5054019;28;20059;-81
2022/08/03 05:53:34;;;;;;;2.72;2.53;;;;;;;;;;5055305;28;20522;-83
2022/08/03 05:56:55;;;;;;;2.95;2.58;;;;;;;;;;5055574;28;20048;-87
2022/08/03 05:59:24;;;;;;;4.68;2.85;;;;;;;;;;5034962;28;20429;-81
2022/08/03 06:01:51;;;;;;;2.97;2.40;;;;;;;;;;5087393;28;20043;-81
2022/08/03 06:04:17;;;;;;;5.25;2.90;;;;;;;;;;5069773;28;20491;-81
2022/08/03 06:06:43;;;;;;;4.15;3.47;;;;;;;;;;5062812;28;20037;-79
2022/08/03 06:09:09;;;;;;;3.28;3.00;;;;;;;;;;5067001;28;20438;-80
2022/08/03 06:11:36;;;;;;;4.03;2.50;;;;;;;;;;5073015;28;20059;-81
2022/08/03 06:14:02;;;;;;;8.05;6.35;;;;;;;;;;5074081;28;20527;-81
2022/08/03 06:16:28;;;;;;;3.10;2.80;;;;;;;;;;5066035;28;20045;-82
2022/08/03 06:18:54;;;;;;;3.85;3.15;;;;;;;;;;5050437;28;20040;-80
2022/08/03 06:21:21;;;;;;;6.38;2.70;;;;;;;;;;5071060;28;20049;-79
2022/08/03 06:23:47;;;;;;;3.58;2.50;;;;;;;;;;5056212;28;20029;-82
2022/08/03 06:26:14;;;;;;;5.55;2.80;;;;;;;;;;5093076;28;20393;-81
2022/08/03 06:28:40;;;;;;;2.97;2.60;;;;;;;;;;5092974;28;20142;-82
2022/08/03 06:31:06;;;;;;;2.92;2.50;;;;;;;;;;5073470;28;20495;-84
2022/08/03 06:33:32;;;;;;;3.13;2.67;;;;;;;;;;5064447;28;20047;-83
2022/08/03 06:35:58;;;;;;;5.20;2.60;;;;;;;;;;5067210;28;20221;-79
2022/08/03 06:38:24;;;;;;;4.43;2.80;;;;;;;;;;5056510;28;20833;-83
2022/08/03 06:40:50;;;;;;;3.38;2.40;;;;;;;;;;5070530;28;20115;-82
2022/08/03 06:43:17;;;;;;;2.95;2.53;;;;;;;;;;5061772;28;20757;-80
2022/08/03 06:45:43;;;;;;;3.10;2.10;;;;;;;;;;5070500;28;20094;-81
2022/08/03 06:48:12;;;;;;;3.72;2.50;;;;;;;;;;5069201;28;20119;-79
2022/08/03 06:50:40;;;;;;;3.05;2.70;;;;;;;;;;5061274;28;20043;-83
2022/08/03 06:53:07;;;;;;;3.22;2.72;;;;;;;;;;5067601;28;20071;-79
2022/08/03 06:55:34;;;;;;;4.68;2.78;;;;;;;;;;5072247;28;20437;-80
2022/08/03 06:58:00;;;;;;;3.10;2.80;;;;;;;;;;5066497;28;20028;-82
2022/08/03 07:00:26;;;;;;;3.78;2.58;;;;;;;;;;5033824;28;20086;-82
2022/08/03 07:02:53;;;;;;;2.33;2.13;;;;;;;;;;5067172;28;20119;-80
2022/08/03 07:05:19;;;;;;;2.50;2.30;;;;;;;;;;5092161;28;20067;-81
2022/08/03 07:07:45;;;;;;;2.80;2.47;;;;;;;;;;5083258;28;20040;-79
2022/08/03 07:10:11;;;;;;;2.83;2.17;;;;;;;;;;5061498;28;20098;-81
2022/08/03 07:12:38;;;;;;;2.90;2.28;;;;;;;;;;5068780;28;20036;-78
2022/08/03 07:15:05;;;;;;;2.50;2.30;;;;;;;;;;5072047;28;20047;-81
2022/08/03 07:17:33;;;;;;;4.15;2.72;;;;;;;;;;5071336;28;20613;-79
2022/08/03 07:20:00;;;;;;;4.90;2.20;;;;;;;;;;5062335;28;20037;-80
2022/08/03 07:22:26;;;;;;;3.03;2.00;;;;;;;;;;5063073;28;20128;-79
2022/08/03 07:24:52;;;;;;;3.17;2.30;;;;;;;;;;5065618;28;20483;-78
2022/08/03 07:27:18;;;;;;;2.83;2.20;;;;;;;;;;5074352;28;20037;-81
2022/08/03 07:29:44;;;;;;;2.88;1.90;;;;;;;;;;5059825;28;20029;-82
2022/08/03 07:32:10;;;;;;;3.22;2.55;;;;;;;;;;5069337;28;20085;-83
2022/08/03 07:34:36;;;;;;;3.42;2.85;;;;;;;;;;5091171;28;20039;-78
2022/08/03 07:37:02;;;;;;;5.25;4.43;;;;;;;;;;5079000;28;20034;-78
2022/08/03 07:39:29;;;;;;;2.58;2.28;;;;;;;;;;5070667;28;20033;-85
2022/08/03 07:41:55;;;;;;;2.88;2.20;;;;;;;;;;5065255;28;20582;-79
2022/08/03 07:44:21;;;;;;;2.75;2.35;;;;;;;;;;5070591;28;20047;-79
2022/08/03 07:46:47;;;;;;;3.67;3.38;;;;;;;;;;5067530;28;20490;-78
2022/08/03 07:49:13;;;;;;;3.65;2.25;;;;;;;;;;5067158;28;20475;-80
2022/08/03 07:51:39;;;;;;;3.47;2.70;;;;;;;;;;5069908;28;20036;-80
2022/08/03 07:54:06;;;;;;;4.88;3.35;;;;;;;;;;5066326;28;20136;-80
2022/08/03 07:56:33;;;;;;;2.50;2.20;;;;;;;;;;5067300;28;20124;-82
2022/08/03 07:58:59;;;;;;;3.83;2.40;;;;;;;;;;5068838;28;20029;-80
2022/08/03 08:01:25;;;;;;;2.95;2.53;;;;;;;;;;5071273;28;20554;-82
2022/08/03 08:03:51;;;;;;;2.38;2.13;;;;;;;;;;5069025;28;20107;-81
2022/08/03 08:06:18;;;;;;;3.47;2.13;;;;;;;;;;5050990;28;20029;-81
2022/08/03 08:08:47;;;;;;;5.75;5.25;;;;;;;;;;5065258;28;20033;-83
2022/08/03 08:11:13;;;;;;;4.05;3.75;;;;;;;;;;5033952;28;20063;-81
2022/08/03 08:13:39;;;;;;;7.25;6.55;;;;;;;;;;5055848;28;20108;-81
2022/08/03 08:16:06;;;;;;;5.13;4.68;;;;;;;;;;5053224;28;20028;-82
2022/08/03 08:18:33;;;;;;;9.50;6.85;;;;;;;;;;5086991;28;20039;-82
2022/08/03 08:21:00;;;;;;;3.63;2.10;;;;;;;;;;5091098;28;20024;-82
2022/08/03 08:23:26;;;;;;;2.50;2.00;;;;;;;;;;5073039;28;20032;-82
2022/08/03 08:26:01;;;;;;;4.63;3.35;;;;;;;;;;5052842;28;20144;-83
2022/08/03 08:28:34;;;;;;;24.23;21.83;;;;;;;;;;5078322;28;20033;-84
2022/08/03 08:31:01;;;;;;;2.50;2.30;;;;;;;;;;5064681;28;20063;-81
2022/08/03 08:33:27;;;;;;;3.28;1.90;;;;;;;;;;5068256;28;20124;-82
2022/08/03 08:35:56;;;;;;;2.30;1.92;;;;;;;;;;5069205;28;20051;-85
2022/08/03 08:38:23;;;;;;;2.92;2.63;;;;;;;;;;5067676;28;20052;-83
2022/08/03 08:41:00;;;;;;;2.60;2.40;;;;;;;;;;5065518;28;20040;-82
2022/08/03 08:43:27;;;;;;;15.48;14.00;;;;;;;;;;5068316;28;20045;-82
2022/08/03 08:45:53;;;;;;;2.15;1.95;;;;;;;;;;5064860;28;20036;-83
2022/08/03 08:48:22;;;;;;;3.00;2.13;;;;;;;;;;5044741;28;20041;-83
2022/08/03 08:50:51;;;;;;;3.25;1.75;;;;;;;;;;5062695;28;20045;-82
2022/08/03 08:53:18;;;;;;;2.95;2.03;;;;;;;;;;5051935;28;20060;-82
2022/08/03 08:55:45;;;;;;;2.42;1.70;;;;;;;;;;5063563;28;20029;-86
2022/08/03 08:58:15;;;;;;;1.58;1.33;;;;;;;;;;5051279;28;20124;-85
2022/08/03 09:00:44;;;;;;;4.18;1.40;;;;;;;;;;5070338;28;20036;-83
2022/08/03 09:03:13;;;;;;;2.85;1.48;;;;;;;;;;5071057;28;20173;-83
2022/08/03 09:05:42;;;;;;;2.42;1.52;;;;;;;;;;5057275;28;20047;-80
2022/08/03 09:08:08;;;;;;;2.35;1.60;;;;;;;;;;5070398;28;20032;-79
2022/08/03 09:10:34;;;;;;;6.80;6.20;;;;;;;;;;5070575;28;20029;-83
2022/08/03 09:13:14;;;;;;;2.15;1.50;;;;;;;;;;5069968;28;20032;-84
2022/08/03 09:15:41;;;;;;;1.88;1.33;;;;;;;;;;5054106;28;20400;-83
2022/08/03 09:18:08;;;;;;;3.42;1.33;;;;;;;;;;5058988;28;20037;-82
2022/08/03 09:20:35;;;;;;;2.78;2.50;;;;;;;;;;5051893;28;20033;-85
2022/08/03 09:23:08;;;;;;;2.58;1.50;;;;;;;;;;5086482;28;20041;-83
2022/08/03 09:25:36;;;;;;;2.50;1.58;;;;;;;;;;5075860;28;20032;-83
2022/08/03 09:28:05;;;;;;;1.70;1.58;;;;;;;;;;5054368;28;20124;-80
2022/08/03 09:30:32;;;;;;;2.53;1.58;;;;;;;;;;5055231;28;20068;-80
2022/08/03 09:33:11;;;;;;;2.67;2.25;;;;;;;;;;5073839;28;20112;-85
2022/08/03 09:35:44;;;;;;;2.67;2.40;;;;;;;;;;5073201;28;20036;-83
2022/08/03 09:38:11;;;;;;;2.30;1.50;;;;;;;;;;5069087;28;20189;-85
2022/08/03 09:40:38;;;;;;;1.88;1.50;;;;;;;;;;5070929;28;20751;-82
2022/08/03 09:43:06;;;;;;;1.58;1.30;;;;;;;;;;5068061;28;20403;-83
2022/08/03 09:45:33;;;;;;;27.00;24.23;;;;;;;;;;5055859;28;20032;-83
2022/08/03 09:48:19;;;;;;;5.00;2.80;;;;;;;;;;5074351;28;20044;-85
2022/08/03 09:50:49;;;;;;;1.60;1.40;;;;;;;;;;5051350;28;20418;-82
2022/08/03 09:53:15;;;;;;;1.88;1.13;;;;;;;;;;5073013;28;20039;-83
2022/08/03 09:55:49;;;;;;;0.98;0.88;;;;;;;;;;5063216;28;20033;-85
2022/08/03 09:58:16;;;;;;;9.63;8.73;;;;;;;;;;5053572;28;20032;-83
2022/08/03 10:01:02;;;;;;;1.73;1.30;;;;;;;;;;5073507;28;20036;-84
2022/08/03 10:03:30;;;;;;;2.20;1.98;;;;;;;;;;5055164;28;20085;-84
2022/08/03 10:05:56;;;;;;;3.40;2.53;;;;;;;;;;5072299;28;20044;-84
2022/08/03 10:08:23;;;;;;;1.63;1.45;;;;;;;;;;5093132;28;20043;-85
2022/08/03 10:10:52;;;;;;;1.75;1.20;;;;;;;;;;5073702;28;20035;-84
2022/08/03 10:13:19;;;;;;;1.38;1.27;;;;;;;;;;5080534;28;20033;-81
2022/08/03 10:15:46;;;;;;;3.30;1.30;;;;;;;;;;5071426;28;20426;-84
2022/08/03 10:18:12;;;;;;;2.38;1.52;;;;;;;;;;5072161;28;20036;-83
2022/08/03 10:20:43;;;;;;;1.35;1.10;;;;;;;;;;5073209;28;20074;-84
2022/08/03 10:23:10;;;;;;;5.25;3.10;;;;;;;;;;5073074;28;20067;-82
2022/08/03 10:25:38;;;;;;;1.77;1.42;;;;;;;;;;5071949;28;20032;-86
2022/08/03 10:28:33;;;;;;;;;;;;;;;;;;;;;
2022/08/03 10:31:00;;;;;;;1.80;1.33;;;;;;;;;;5075995;28;20044;-85
2022/08/03 10:33:28;;;;;;;2.95;2.00;;;;;;;;;;5072371;28;20037;-84
2022/08/03 10:35:55;;;;;;;1.40;1.30;;;;;;;;;;5040987;28;20051;-87
2022/08/03 10:38:25;;;;;;;1.77;1.13;;;;;;;;;;5053371;28;20029;-84
2022/08/03 10:41:00;;;;;;;1.83;1.23;;;;;;;;;;5054603;28;20032;-83
2022/08/03 10:43:49;;;;;;;1.60;1.13;;;;;;;;;;5047017;28;20669;-85
2022/08/03 10:46:17;;;;;;;2.25;1.35;;;;;;;;;;5060700;28;20041;-82
2022/08/03 10:48:43;;;;;;;1.42;1.30;;;;;;;;;;5059615;28;20076;-86
2022/08/03 10:51:10;;;;;;;1.58;1.48;;;;;;;;;;5064360;28;20036;-85
2022/08/03 10:53:42;;;;;;;1.38;1.25;;;;;;;;;;5074359;28;20106;-82
2022/08/03 10:59:42;;;;;;;1.88;1.38;;;;;;;;;;5062327;28;20047;-90
2022/08/03 11:02:09;;;;;;;3.75;1.35;;;;;;;;;;5018697;28;20036;-83
2022/08/03 11:04:35;;;;;;;1.55;1.27;;;;;;;;;;5070528;28;20033;-87
2022/08/03 11:07:21;;;;;;;3.03;1.67;;;;;;;;;;5053327;28;20064;-84
2022/08/03 11:09:49;;;;;;;2.45;1.33;;;;;;;;;;5064221;28;20063;-89
2022/08/03 11:12:21;;;;;;;4.05;3.67;;;;;;;;;;5071633;28;20055;-87
2022/08/03 11:14:48;;;;;;;3.85;1.45;;;;;;;;;;5055058;28;20082;-77
2022/08/03 11:17:14;;;;;;;7.47;6.40;;;;;;;;;;5065500;28;20115;-83
2022/08/03 11:19:45;;;;;;;3.53;1.30;;;;;;;;;;5052583;28;20915;-85
2022/08/03 11:22:11;;;;;;;2.50;1.92;;;;;;;;;;5071546;28;20036;-85
2022/08/03 11:24:40;;;;;;;2.80;1.80;;;;;;;;;;5058086;28;20446;-83
2022/08/03 11:27:26;;;;;;;2.05;1.30;;;;;;;;;;5054046;28;20033;-87
2022/08/03 11:30:13;;;;;;;5.10;1.50;;;;;;;;;;5071362;28;20063;-84
2022/08/03 11:32:39;;;;;;;2.63;1.10;;;;;;;;;;5051716;28;20119;-85
2022/08/03 11:35:10;;;;;;;2.17;1.92;;;;;;;;;;5065985;28;20041;-86
2022/08/03 11:37:37;;;;;;;7.38;1.75;;;;;;;;;;5049721;28;20494;-86
2022/08/03 11:40:03;;;;;;;2.17;1.30;;;;;;;;;;5071495;28;20044;-89
2022/08/03 11:42:34;;;;;;;1.35;1.25;;;;;;;;;;5077502;28;20336;-87
2022/08/03 11:45:03;;;;;;;1.30;1.15;;;;;;;;;;5057289;28;20112;-87
2022/08/03 11:47:29;;;;;;;2.55;1.60;;;;;;;;;;5052119;28;20506;-87
2022/08/03 11:50:00;;;;;;;2.35;1.30;;;;;;;;;;5067317;28;20039;-85
2022/08/03 11:52:27;;;;;;;2.28;1.20;;;;;;;;;;5070434;28;20031;-83
2022/08/03 11:54:54;;;;;;;1.88;1.08;;;;;;;;;;5067894;28;20062;-85
2022/08/03 11:57:37;;;;;;;3.63;1.48;;;;;;;;;;5052362;28;20068;-86
2022/08/03 12:00:19;;;;;;;1.70;1.20;;;;;;;;;;5070907;28;20090;-84
2022/08/03 12:02:53;;;;;;;1.27;1.02;;;;;;;;;;5054070;28;20086;-85
2022/08/03 12:05:20;;;;;;;2.25;0.80;;;;;;;;;;5069301;28;20037;-85
2022/08/03 12:07:46;;;;;;;2.47;1.40;;;;;;;;;;5061766;28;20064;-81
2022/08/03 12:10:13;;;;;;;2.05;1.30;;;;;;;;;;5064810;28;20040;-80
2022/08/03 12:12:41;;;;;;;2.40;1.10;;;;;;;;;;5071901;28;20043;-84
2022/08/03 12:15:09;;;;;;;3.50;1.23;;;;;;;;;;5053495;28;20586;-86
2022/08/03 12:17:36;;;;;;;3.08;2.22;;;;;;;;;;5036612;28;20564;-86
2022/08/03 12:20:03;;;;;;;2.92;1.40;;;;;;;;;;5053579;28;20040;-86
2022/08/03 12:22:34;;;;;;;1.55;1.27;;;;;;;;;;5071433;28;20421;-84
2022/08/03 12:25:01;;;;;;;1.40;1.23;;;;;;;;;;5047824;28;20033;-85
2022/08/03 12:27:30;;;;;;;2.60;1.60;;;;;;;;;;5047505;28;20045;-81
2022/08/03 12:29:57;;;;;;;2.55;1.40;;;;;;;;;;5068492;28;20048;-83
2022/08/03 12:32:24;;;;;;;2.13;1.27;;;;;;;;;;5068966;28;20467;-85
2022/08/03 12:34:54;;;;;;;3.15;1.17;;;;;;;;;;5064427;28;20127;-84
2022/08/03 12:37:21;;;;;;;1.70;1.60;;;;;;;;;;5050406;28;20369;-85
2022/08/03 12:39:51;;;;;;;1.52;1.20;;;;;;;;;;5071601;28;20519;-83
2022/08/03 12:42:17;;;;;;;2.83;1.80;;;;;;;;;;5052820;28;20569;-86
2022/08/03 12:44:44;;;;;;;2.03;1.25;;;;;;;;;;5066499;28;20038;-83
2022/08/03 12:47:11;;;;;;;3.42;1.60;;;;;;;;;;5068699;28;20093;-86
2022/08/03 12:49:56;;;;;;;2.35;1.35;;;;;;;;;;5045581;28;20372;-85
2022/08/03 12:52:22;;;;;;;1.45;1.00;;;;;;;;;;5049755;28;20368;-83
2022/08/03 12:55:08;;;;;;;2.67;1.50;;;;;;;;;;5065036;28;20044;-84
2022/08/03 12:57:41;;;;;;;1.60;1.17;;;;;;;;;;5052413;28;20029;-85
2022/08/03 13:00:15;;;;;;;2.00;1.10;;;;;;;;;;5071805;28;20123;-82
2022/08/03 13:02:41;;;;;;;3.85;1.77;;;;;;;;;;5074026;28;20498;-80
2022/08/03 13:05:14;;;;;;;1.58;1.20;;;;;;;;;;5074005;28;20032;-84
2022/08/03 13:07:44;;;;;;;2.07;1.30;;;;;;;;;;5073880;28;20495;-83
2022/08/03 13:10:11;;;;;;;3.60;2.17;;;;;;;;;;5073581;28;20103;-83
2022/08/03 13:12:47;;;;;;;1.95;1.20;;;;;;;;;;5068947;28;20047;-83
2022/08/03 13:15:14;;;;;;;5.30;2.97;;;;;;;;;;5074271;28;20108;-83
2022/08/03 13:17:40;;;;;;;2.28;1.52;;;;;;;;;;5056194;28;20048;-83
2022/08/03 13:20:06;;;;;;;1.45;1.10;;;;;;;;;;5056111;28;20036;-81
2022/08/03 13:22:33;;;;;;;2.15;1.15;;;;;;;;;;5073853;28;20044;-83
2022/08/03 13:25:00;;;;;;;4.20;1.10;;;;;;;;;;5066841;28;20037;-82
2022/08/03 13:27:27;;;;;;;2.47;1.20;;;;;;;;;;5068987;28;20040;-83
2022/08/03 13:29:53;;;;;;;1.23;1.00;;;;;;;;;;5073351;28;20399;-82
2022/08/03 13:32:20;;;;;;;5.65;2.15;;;;;;;;;;5055926;28;20462;-82
2022/08/03 13:34:46;;;;;;;1.48;1.13;;;;;;;;;;5073978;28;20036;-82
2022/08/03 13:37:12;;;;;;;1.23;1.10;;;;;;;;;;5074242;28;20032;-81
2022/08/03 13:39:39;;;;;;;2.88;1.33;;;;;;;;;;5074055;28;20033;-84
2022/08/03 13:42:05;;;;;;;4.97;1.50;;;;;;;;;;5054258;28;20038;-84
2022/08/03 13:44:31;;;;;;;1.70;1.45;;;;;;;;;;5073732;28;20072;-84
2022/08/03 13:46:59;;;;;;;2.50;1.52;;;;;;;;;;5076859;28;20041;-81
2022/08/03 13:49:26;;;;;;;2.50;1.58;;;;;;;;;;5055699;28;20029;-82
2022/08/03 13:51:52;;;;;;;3.35;1.23;;;;;;;;;;5055312;28;20499;-84
2022/08/03 13:54:18;;;;;;;2.65;2.28;;;;;;;;;;5073117;28;20377;-84
2022/08/03 13:56:51;;;;;;;1.70;1.60;;;;;;;;;;5073098;28;20036;-82
2022/08/03 13:59:26;;;;;;;1.50;1.30;;;;;;;;;;5055174;28;20388;-84
2022/08/03 14:01:53;;;;;;;2.72;2.03;;;;;;;;;;5073285;28;20170;-83
2022/08/03 14:04:20;;;;;;;2.47;1.25;;;;;;;;;;5073101;28;20722;-82
2022/08/03 14:06:46;;;;;;;1.52;1.42;;;;;;;;;;5073329;28;20053;-81
2022/08/03 14:09:13;;;;;;;2.28;2.10;;;;;;;;;;5074643;28;20102;-81
2022/08/03 14:11:39;;;;;;;6.38;4.95;;;;;;;;;;5074745;28;20095;-80
2022/08/03 14:14:05;;;;;;;9.40;5.80;;;;;;;;;;5074708;28;20025;-82
2022/08/03 14:16:32;;;;;;;3.00;2.25;;;;;;;;;;5073663;28;20518;-82
2022/08/03 14:18:58;;;;;;;1.95;1.58;;;;;;;;;;5073951;28;20075;-82
2022/08/03 14:21:24;;;;;;;1.90;1.10;;;;;;;;;;5074237;28;20039;-82
2022/08/03 14:23:50;;;;;;;3.88;2.10;;;;;;;;;;5074115;28;20037;-81
2022/08/03 14:26:17;;;;;;;2.03;1.83;;;;;;;;;;5074273;28;20119;-82
2022/08/03 14:28:43;;;;;;;5.30;4.05;;;;;;;;;;5074015;28;20120;-81
2022/08/03 14:31:09;;;;;;;2.55;1.48;;;;;;;;;;5074060;28;20048;-82
2022/08/03 14:33:35;;;;;;;2.83;1.42;;;;;;;;;;5074217;28;20086;-83
2022/08/03 14:36:01;;;;;;;1.50;1.15;;;;;;;;;;5074089;28;20112;-82
2022/08/03 14:38:28;;;;;;;1.60;0.90;;;;;;;;;;5073535;28;20025;-82
2022/08/03 14:40:54;;;;;;;1.85;0.98;;;;;;;;;;5053660;28;20158;-81
2022/08/03 14:43:20;;;;;;;1.20;0.98;;;;;;;;;;5055639;28;20483;-82
2022/08/03 14:45:50;;;;;;;1.38;1.00;;;;;;;;;;5055332;28;20044;-82
2022/08/03 14:48:17;;;;;;;1.92;0.95;;;;;;;;;;5073398;28;20051;-83
2022/08/03 14:50:43;;;;;;;2.00;1.15;;;;;;;;;;5071746;28;20365;-81
2022/08/03 14:53:11;;;;;;;3.25;1.48;;;;;;;;;;5059975;28;20037;-81
2022/08/03 14:55:38;;;;;;;1.60;1.05;;;;;;;;;;5055100;28;20043;-81
2022/08/03 14:58:05;;;;;;;2.17;1.38;;;;;;;;;;5055590;28;20040;-80
2022/08/03 15:00:32;;;;;;;1.75;1.00;;;;;;;;;;5073217;28;20487;-81
2022/08/03 15:02:58;;;;;;;1.58;1.45;;;;;;;;;;5072550;28;20040;-83
2022/08/03 15:05:24;;;;;;;1.73;1.00;;;;;;;;;;5072335;28;20033;-81
2022/08/03 15:07:51;;;;;;;2.00;1.40;;;;;;;;;;5071661;28;20090;-81
2022/08/03 15:10:17;;;;;;;1.00;0.80;;;;;;;;;;5071148;28;20068;-82
2022/08/03 15:12:43;;;;;;;1.48;1.10;;;;;;;;;;5072754;28;20108;-81
2022/08/03 15:15:10;;;;;;;0.88;0.80;;;;;;;;;;5072310;28;20025;-81
2022/08/03 15:17:36;;;;;;;1.77;1.15;;;;;;;;;;5071614;28;20480;-81
2022/08/03 15:20:03;;;;;;;1.20;1.10;;;;;;;;;;5072762;28;20036;-81
2022/08/03 15:22:29;;;;;;;2.55;2.35;;;;;;;;;;5073024;28;20111;-80
2022/08/03 15:24:55;;;;;;;1.30;1.10;;;;;;;;;;5072888;28;20033;-82
2022/08/03 15:27:22;;;;;;;2.15;1.08;;;;;;;;;;5072871;28;20508;-81
2022/08/03 15:29:48;;;;;;;3.35;1.33;;;;;;;;;;5072816;28;20044;-82